METAR Data
IDs: Format: Raw Decoded Include TAF

Data at: 1721 UTC 16 Oct 2021

KSNK 161715Z AUTO 30004KT 10SM CLR 17/M02 A3047 RMK AO2 T01711017
KSNK 161655Z AUTO 00000KT 10SM CLR 17/M01 A3047 RMK AO2 T01701009
KSNK 161635Z AUTO 00000KT 10SM CLR 17/M01 A3047 RMK AO2 T01651008
KSNK 161615Z AUTO 18003KT 10SM CLR 16/M01 A3047 RMK AO2 T01601012
KSNK 161555Z AUTO 14005KT 10SM CLR 15/M01 A3047 RMK AO2 T01541011
KSNK 161535Z AUTO 14004KT 10SM CLR 15/M01 A3047 RMK AO2 T01491008
KSNK 161515Z AUTO 13004KT 10SM CLR 14/00 A3047 RMK AO2 T01421003
KSNK 161455Z AUTO 11003KT 7SM CLR 13/00 A3046 RMK AO2 T01291001
KSNK 161435Z AUTO 00000KT 10SM CLR 12/01 A3046 RMK AO2 T01170006
KSNK 161415Z AUTO 00000KT 10SM CLR 10/01 A3046 RMK AO2 T00980011
KSNK 161355Z AUTO 00000KT 10SM CLR 07/01 A3045 RMK AO2 T00740009
KSNK 161335Z AUTO 00000KT 10SM CLR 06/00 A3044 RMK AO2 T00580004
KSNK 161315Z AUTO 35003KT 10SM CLR 05/00 A3042 RMK AO2 T00510000
KSNK 161255Z AUTO 36006KT 10SM CLR 05/00 A3042 RMK AO2 T00530000
KSNK 161235Z AUTO 36007KT 10SM CLR 06/00 A3042 RMK AO2 T00610000
KSNK 161215Z AUTO 36004KT 10SM CLR 06/00 A3042 RMK AO2 T00620000
KSNK 161155Z AUTO 36005KT 10SM CLR 06/00 A3041 RMK AO2 T00600000
KSNK 161135Z AUTO 35005KT 10SM CLR 07/00 A3041 RMK AO2 T00650001
KSNK 161115Z AUTO 35005KT 10SM CLR 06/00 A3040 RMK AO2 T00630001
KSNK 161055Z AUTO 36006KT 10SM CLR 06/00 A3040 RMK AO2 T00630002
KSNK 161035Z AUTO 01005KT 10SM CLR 07/01 A3039 RMK AO2 T00660005
KSNK 161015Z AUTO 36006KT 10SM CLR 07/01 A3039 RMK AO2 T00650007
KSNK 160955Z AUTO 36004KT 10SM CLR 07/01 A3039 RMK AO2 T00710005
KSNK 160935Z AUTO 02003KT 10SM CLR 09/00 A3038 RMK AO2 T00920004
KSNK 160915Z AUTO 00000KT 10SM CLR 10/01 A3039 RMK AO2 T00960005
KSNK 160855Z AUTO 36003KT 10SM CLR 10/01 A3038 RMK AO2 T00960005
KSNK 160835Z AUTO 00000KT 10SM CLR 10/01 A3039 RMK AO2 T00960006
KSNK 160815Z AUTO 00000KT 10SM CLR 09/01 A3039 RMK AO2 T00920008
KSNK 160755Z AUTO 36003KT 10SM CLR 09/01 A3038 RMK AO2 T00910008
KSNK 160735Z AUTO 01003KT 10SM CLR 09/01 A3038 RMK AO2 T00900008
KSNK 160715Z AUTO 36004KT 10SM CLR 09/01 A3038 RMK AO2 T00910008
KSNK 160655Z AUTO 36004KT 10SM CLR 09/01 A3038 RMK AO2 T00910007
KSNK 160635Z AUTO 36004KT 10SM CLR 09/01 A3038 RMK AO2 T00880006
KSNK 160615Z AUTO 35006KT 10SM CLR 09/01 A3038 RMK AO2 T00880008
KSNK 160555Z AUTO 35005KT 10SM CLR 10/01 A3037 RMK AO2 T00970009
KSNK 160535Z AUTO 01005KT 10SM CLR 11/01 A3037 RMK AO2 T01130010
KSNK 160515Z AUTO 04004KT 10SM CLR 12/01 A3037 RMK AO2 T01160010
KSNK 160455Z AUTO 04004KT 10SM CLR 12/01 A3037 RMK AO2 T01150011
KSNK 160435Z AUTO 02004KT 10SM CLR 12/01 A3036 RMK AO2 T01200010
KSNK 160415Z AUTO 03006KT 10SM CLR 13/01 A3035 RMK AO2 T01260011
KSNK 160355Z AUTO 03007KT 10SM CLR 12/01 A3035 RMK AO2 T01230012
KSNK 160335Z AUTO 03005KT 10SM CLR 13/01 A3034 RMK AO2 T01260011
KSNK 160315Z AUTO 03006KT 10SM CLR 13/01 A3033 RMK AO2 T01300010
KSNK 160255Z AUTO 03005KT 10SM CLR 14/01 A3032 RMK AO2 T01350010
KSNK 160235Z AUTO 04006KT 10SM CLR 14/01 A3032 RMK AO2 T01400010
KSNK 160215Z AUTO 04007KT 10SM CLR 14/01 A3031 RMK AO2 T01430009
KSNK 160155Z AUTO 04006KT 10SM CLR 15/01 A3030 RMK AO2 T01450009
KSNK 160135Z AUTO 03006KT 10SM CLR 15/01 A3029 RMK AO2 T01480008
KSNK 160115Z AUTO 04006KT 10SM CLR 15/01 A3028 RMK AO2 T01470008
KSNK 160055Z AUTO 02005KT 10SM CLR 16/01 A3027 RMK AO2 T01560006
KSNK 160035Z AUTO 04004KT 10SM CLR 16/01 A3026 RMK AO2 T01620006
KSNK 160015Z AUTO 02007KT 10SM CLR 17/01 A3025 RMK AO2 T01730005
KSNK 152355Z AUTO 02008KT 10SM CLR 18/01 A3025 RMK AO2 T01810005
KSNK 152315Z AUTO 01010KT 10SM CLR 19/00 A3023 RMK AO2 T01910002
KSNK 152255Z AUTO 01013G19KT 10SM CLR 20/00 A3023 RMK AO2 T01950004
KSNK 152235Z AUTO 01014G19KT 10SM CLR 20/01 A3023 RMK AO2 T01960005
KSNK 152215Z AUTO 01013KT 10SM CLR 20/01 A3022 RMK AO2 T01990009
KSNK 152155Z AUTO 01013G19KT 10SM CLR 20/01 A3022 RMK AO2 T02000005
KSNK 152135Z AUTO 36015G22KT 10SM CLR 20/01 A3022 RMK AO2 T02020008
KSNK 152115Z AUTO 02014G20KT 10SM CLR 20/01 A3021 RMK AO2 T02020010
KSNK 152055Z AUTO 36016G24KT 10SM CLR 20/02 A3021 RMK AO2 T02020016
KSNK 152035Z AUTO 01015G19KT 10SM CLR 20/02 A3021 RMK AO2 T02010020
KSNK 152015Z AUTO 36018G22KT 10SM CLR 20/02 A3020 RMK AO2 T02000021
KSNK 151955Z AUTO 36018G22KT 10SM CLR 20/03 A3020 RMK AO2 T01990026
KSNK 151935Z AUTO 35018G25KT 10SM CLR 20/03 A3020 RMK AO2 T01960028
KSNK 151915Z AUTO 34017G25KT 10SM CLR 19/03 A3021 RMK AO2 T01930032
KSNK 151855Z AUTO 36015G24KT 10SM CLR 19/04 A3021 RMK AO2 T01890035
KSNK 151835Z AUTO 36012G21KT 10SM CLR 19/04 A3022 RMK AO2 T01850036
KSNK 151815Z AUTO 36016G22KT 10SM CLR 18/04 A3023 RMK AO2 T01840039
KSNK 151755Z AUTO 36019G24KT 10SM CLR 18/04 A3023 RMK AO2 T01780040
KSNK 151735Z AUTO 01016G22KT 10SM CLR 17/04 A3023 RMK AO2 T01740043
KSNK 151715Z AUTO 01018G23KT 10SM CLR 17/05 A3022 RMK AO2 T01730047
KSNK 151655Z AUTO 01018G23KT 10SM CLR 17/05 A3022 RMK AO2 T01670048
KSNK 151635Z AUTO 36024G28KT 10SM CLR 16/05 A3021 RMK AO2 T01620051
KSNK 151615Z AUTO 01020G25KT 10SM CLR 16/05 A3020 RMK AO2 T01590054
KSNK 151555Z AUTO 36018G21KT 10SM CLR 15/05 A3020 RMK AO2 T01490054
KSNK 151535Z AUTO 01017G23KT 10SM CLR 14/05 A3019 RMK AO2 T01390053
KSNK 151515Z AUTO 35018G24KT 10SM CLR 13/05 A3018 RMK AO2 T01330054
KSNK 151455Z AUTO 36016KT 10SM CLR 13/05 A3017 RMK AO2 T01250051
KSNK 151435Z AUTO 36018G22KT 10SM CLR 12/05 A3016 RMK AO2 T01200050
KSNK 151415Z AUTO 36015G23KT 10SM CLR 12/05 A3015 RMK AO2 T01150048
KSNK 151355Z AUTO 36015G20KT 10SM CLR 11/05 A3013 RMK AO2 T01120046
KSNK 151335Z AUTO 35017G21KT 10SM CLR 11/04 A3011 RMK AO2 T01080044
KSNK 151315Z AUTO 35016G20KT 10SM CLR 11/04 A3009 RMK AO2 T01060042
KSNK 151255Z AUTO 35015G19KT 10SM CLR 11/04 A3008 RMK AO2 T01060039
KSNK 151235Z AUTO 35013G17KT 10SM CLR 11/04 A3007 RMK AO2 T01090035
KSNK 151215Z AUTO 34012G20KT 10SM CLR 12/04 A3005 RMK AO2 T01170039
KSNK 151155Z AUTO 35014G21KT 10SM CLR 12/04 A3004 RMK AO2 T01180040
KSNK 151135Z AUTO 36014KT 10SM CLR 12/04 A3003 RMK AO2 T01200043
KSNK 151115Z AUTO 35011KT 10SM CLR 12/04 A3002 RMK AO2 T01190044
KSNK 151055Z AUTO 34010KT 10SM CLR 12/04 A3000 RMK AO2 T01170042
KSNK 151035Z AUTO 35010KT 10SM CLR 12/04 A2999 RMK AO2 T01230042
KSNK 151015Z AUTO 01009KT 10SM CLR 12/04 A2998 RMK AO2 T01180044
KSNK 150955Z AUTO 01007KT 10SM CLR 13/04 A2997 RMK AO2 T01250042
KSNK 150935Z AUTO 00000KT 10SM CLR 13/04 A2996 RMK AO2 T01260041
KSNK 150915Z AUTO 00000KT 10SM CLR 12/04 A2997 RMK AO2 T01160036
KSNK 150855Z AUTO 34004KT 10SM CLR 12/04 A2995 RMK AO2 T01210036
KSNK 150835Z AUTO 36006KT 10SM CLR 13/03 A2994 RMK AO2 T01310026
KSNK 150815Z AUTO 02003KT 10SM CLR 14/02 A2994 RMK AO2 T01410017
KSNK 150755Z AUTO 02003KT 10SM CLR 14/01 A2994 RMK AO2 T01440012
KSNK 150735Z AUTO 02005KT 10SM CLR 16/01 A2994 RMK AO2 T01580011
KSNK 150715Z AUTO 28004KT 10SM CLR 15/02 A2993 RMK AO2 T01540022
KSNK 150655Z AUTO 26005KT 10SM CLR 15/03 A2993 RMK AO2 T01540026
KSNK 150635Z AUTO 28005KT 10SM CLR 15/03 A2993 RMK AO2 T01520029
KSNK 150615Z AUTO 25003KT 10SM 15/03 A2993 RMK AO2 T01460028
KSNK 150555Z AUTO 22007KT 10SM 15/03 A2994 RMK AO2 T01490027
KSNK 150535Z AUTO 21005KT 10SM CLR 16/03 A2993 RMK AO2 T01600026